Terminal Aerodrome Forecast
Issued by NWS

Home | Current Version | Previous Version | Text Only | Print | Product List | Glossary On
Versions: 1 2 3 4 5 6 7 8 9 10 11 12 13 14 15 16 17 18
000
FTAK31 PAJN 300540
TAFASI
TAF
PASI 300540Z 3006/0106 33006KT P6SM BKN110
     FM301500 28005KT P6SM SCT015 BKN025 OVC100
     FM302100 22007KT P6SM VCSH SCT015 OVC025
     FM010100 22005KT P6SM -SHRA BKN015 OVC025=

USA.gov is the U.S. government's official web portal to all federal, state and local government web resources and services.